KLKV/LKV METAR and TAF weather

Enter ICAO airport designator
Station Type Date Time Source
KLKV METAR 2019/12/10 05:53 UTC NOAA

KLKV 100553Z AUTO 00000KT 1/2SM FZFG OVC003 M02/M03 A3024 RMK AO2 SLP276 T10221028 10006 21022 51007 FZRANO


Station Type Date Time Source
KLKV Decoded METAR 2019/12/10 05:53 UTC NOAA

Lakeview, Lake County Airport, OR, United States (KLKV) 42-10N 120-24W
Dec 10, 2019 - 12:53 AM EST / 2019.12.10 0553 UTC
Wind: Calm:0
Visibility: 1/2 mile(s):0
Sky conditions: overcast
Weather: freezing fog
Temperature: 28.0 F (-2.2 C)
Dew Point: 27.0 F (-2.8 C)
Relative Humidity: 95%
Pressure (altimeter): 30.24 in. Hg (1024 hPa)
Pressure tendency: 0.02 inches (0.7 hPa) higher than three hours ago
ob: KLKV 100553Z AUTO 00000KT 1/2SM FZFG OVC003 M02/M03 A3024 RMK AO2 SLP276 T10221028 10006 21022 51007 FZRANO
cycle: 6

Station Type Date Time Source
KLKV TAF UTC NOAA

Error!

Example: see airport list